MDT,Max TemperatureF,Mean TemperatureF,Min TemperatureF,Max Dew PointF,MeanDew PointF,Min DewpointF,Max Humidity, Mean Humidity, Min Humidity, Max Sea Level PressureIn, Mean Sea Level PressureIn, Min Sea Level PressureIn, Max VisibilityMiles, Mean VisibilityMiles, Min VisibilityMiles, Max Wind SpeedMPH, Mean Wind SpeedMPH, Max Gust SpeedMPH,PrecipitationIn, CloudCover, Events, WindDirDegrees
2013-8-1,91,74,56,53,46,33,83,49,14,30.06,29.83,29.70,10,10,10,22,7,28,0.00,0,Thunderstorm,290
2013-8-2,81,68,54,44,37,24,66,40,13,29.99,29.92,29.78,10,10,10,20,10,25,0.00,0,,201
2013-8-3,85,66,47,42,35,23,82,46,10,30.05,29.99,29.94,10,10,10,14,5,18,0.00,0,,194
2013-8-4,89,68,46,42,34,27,82,47,11,30.05,29.97,29.90,10,10,10,14,7,20,0.00,0,,163
2013-8-5,93,70,46,40,34,25,71,40,8,30.00,29.90,29.79,10,10,10,22,6,26,0.00,0,,248
2013-8-6,89,69,48,44,37,29,71,43,15,30.10,29.92,29.84,10,10,2,18,4,28,0.00,0,,170
2013-8-7,88,69,49,43,35,26,71,41,11,29.97,29.90,29.83,10,10,10,12,4,14,0.00,0,,90
2013-8-8,89,69,49,45,39,30,66,40,13,30.04,29.92,29.85,10,10,10,24,6,32,T,0,Thunderstorm,280
2013-8-9,88,73,57,50,41,28,67,40,12,30.00,29.93,29.86,10,10,10,14,6,28,T,2,,66
2013-8-10,89,71,52,48,38,26,71,41,11,30.03,29.95,29.91,10,10,10,21,7,28,0.00,0,,170
2013-8-11,90,71,51,43,35,23,64,37,9,30.06,29.96,29.91,10,10,10,17,6,25,0.00,0,,204
2013-8-12,89,70,50,44,38,28,63,38,12,30.02,29.99,29.95,10,10,10,24,7,37,0.00,0,,86
2013-8-13,87,68,48,42,38,33,68,42,16,30.18,30.07,29.99,10,10,9,28,7,38,T,1,Rain-Thunderstorm,139
2013-8-14,89,69,49,44,38,29,77,45,12,30.10,30.01,29.93,10,10,10,14,4,21,0.00,0,,82
2013-8-15,93,71,49,42,34,20,71,39,7,30.05,29.98,29.92,10,10,8,10,3,15,0.00,0,,76
2013-8-16,94,71,48,40,33,21,66,37,7,30.06,29.97,29.93,10,10,10,17,6,24,0.00,0,,206
2013-8-17,93,72,50,43,35,26,61,35,9,30.04,29.95,29.88,10,10,10,15,6,20,0.00,0,,178
2013-8-18,90,75,59,45,39,33,52,33,14,30.03,29.94,29.88,10,10,10,16,8,23,0.00,0,,192
2013-8-19,91,72,52,45,39,30,71,42,13,30.06,29.96,29.88,10,10,7,14,6,20,0.00,0,,197
2013-8-20,92,74,56,48,42,30,62,37,12,29.98,29.91,29.85,10,10,10,17,7,23,0.00,0,,192
2013-8-21,82,68,54,52,48,45,72,53,33,30.04,29.99,29.92,10,10,10,16,7,23,T,1,,197
2013-8-22,82,68,54,53,48,43,83,52,21,30.09,30.00,29.86,10,10,6,16,7,23,T,0,Thunderstorm,220
2013-8-23,88,72,55,56,50,44,93,59,25,29.93,29.86,29.78,10,10,10,20,8,29,0.00,0,,187
2013-8-24,81,68,55,54,48,36,83,56,28,30.09,29.95,29.85,10,10,10,28,5,43,0.10,3,Rain-Thunderstorm,103
2013-8-25,85,69,52,53,48,39,89,56,23,30.08,29.99,29.89,10,10,10,17,6,25,T,0,Rain,130
2013-8-26,81,70,58,55,50,45,86,60,33,30.09,30.00,29.94,10,10,10,15,7,24,0.05,1,Rain-Thunderstorm,199
2013-8-27,83,69,54,53,51,47,93,62,30,30.08,29.99,29.93,10,10,10,16,5,23,0.00,1,,72
2013-8-28,84,71,57,54,52,48,80,57,34,30.04,30.00,29.96,10,10,10,23,6,30,0.00,2,,234
2013-8-29,89,71,52,55,50,45,89,55,21,30.21,30.06,29.99,10,10,10,21,7,28,T,1,Rain-Thunderstorm,147
2013-8-30,90,72,53,54,46,35,77,47,17,30.20,30.03,29.95,10,10,10,18,7,24,0.01,0,Rain-Thunderstorm,191
2013-8-31,86,66,46,42,36,25,77,44,11,30.11,30.01,29.95,10,10,10,13,4,18,0.00,1,,165